Time;durP1;ratioP1;P1;durP2;ratioP2;P2;SDS_P1;SDS_P2;PMS_P1;PMS_P2;Temp;Humidity;BMP_temperature;BMP_pressure;BME280_temperature;BME280_humidity;BME280_pressure;Samples;Min_cycle;Max_cycle;Signal;HPM_P1;HPM_P2
2023/07/14 00:02:04;;;;;;;;;;;;;;;16.21;73.30;101208.42;108505;1262;124708;-88
2023/07/14 00:04:35;;;;;;;;;;;;;;;16.24;73.31;101214.64;108413;1260;60118;-87
2023/07/14 00:07:03;;;;;;;;;;;;;;;16.26;73.19;101211.13;108389;1264;124794;-88
2023/07/14 00:09:30;;;;;;;;;;;;;;;16.26;72.93;101213.25;108630;1264;67081;-88
2023/07/14 00:11:58;;;;;;;;;;;;;;;16.25;73.00;101213.60;108523;1260;72716;-88
2023/07/14 00:14:25;;;;;;;;;;;;;;;16.24;72.93;101218.91;108382;1264;124844;-88
2023/07/14 00:16:52;;;;;;;;;;;;;;;16.20;72.74;101220.10;108535;1262;60391;-89
2023/07/14 00:19:19;;;;;;;;;;;;;;;16.14;72.53;101218.62;108490;1262;125049;-88
2023/07/14 00:21:47;;;;;;;;;;;;;;;16.08;72.57;101215.55;108657;1261;65671;-88
2023/07/14 00:24:15;;;;;;;;;;;;;;;16.02;72.52;101215.67;108416;1264;124907;-88
2023/07/14 00:26:43;;;;;;;;;;;;;;;15.98;72.56;101217.41;108497;1261;59568;-88
2023/07/14 00:29:26;;;;;;;;;;;;;;;15.93;72.68;101215.95;108504;1262;59898;-88
2023/07/14 00:31:52;;;;;;;;;;;;;;;15.89;72.73;101219.97;108352;1260;125054;-88
2023/07/14 00:34:19;;;;;;;;;;;;;;;15.85;72.78;101222.58;108579;1262;67921;-88
2023/07/14 00:36:46;;;;;;;;;;;;;;;15.81;72.72;101219.52;108506;1262;124975;-88
2023/07/14 00:39:13;;;;;;;;;;;;;;;15.78;72.87;101220.73;108629;1260;59847;-88
2023/07/14 00:41:40;;;;;;;;;;;;;;;15.75;72.88;101218.58;108627;1264;59127;-88
2023/07/14 00:44:17;;;;;;;;;;;;;;;15.72;72.96;101218.68;108413;1262;125125;-87
2023/07/14 00:46:44;;;;;;;;;;;;;;;15.68;72.98;101222.36;108620;1262;67047;-88
2023/07/14 00:49:26;;;;;;;;;;;;;;;15.64;72.91;101220.55;108411;1262;125013;-88
2023/07/14 00:51:57;;;;;;;;;;;;;;;15.61;73.01;101225.98;108595;1260;59317;-88
2023/07/14 00:54:28;;;;;;;;;;;;;;;15.57;72.97;101226.81;108472;1263;125338;-88
2023/07/14 00:56:55;;;;;;;;;;;;;;;15.50;73.10;101227.80;108644;1261;73415;-87
2023/07/14 00:59:33;;;;;;;;;;;;;;;15.47;73.12;101229.70;108658;1262;65904;-89
2023/07/14 01:02:15;;;;;;;;;;;;;;;15.41;73.27;101227.52;108431;1260;125400;-88
2023/07/14 01:05:01;;;;;;;;;;;;;;;15.37;73.28;101226.23;108586;1260;59410;-88
2023/07/14 01:07:32;;;;;;;;;;;;;;;15.32;73.39;101228.45;108568;1261;124972;-88
2023/07/14 01:09:59;;;;;;;;;;;;;;;15.28;73.49;101227.52;108533;1264;74751;-88
2023/07/14 01:12:26;;;;;;;;;;;;;;;15.23;73.62;101230.11;108524;1261;125576;-88
2023/07/14 01:14:53;;;;;;;;;;;;;;;15.19;73.55;101231.81;108532;1260;71501;-88
2023/07/14 01:17:21;;;;;;;;;;;;;;;15.14;73.58;101235.98;108625;1261;59134;-88
2023/07/14 01:19:57;;;;;;;;;;;;;;;15.09;73.70;101238.05;108424;1260;124984;-88
2023/07/14 01:22:43;;;;;;;;;;;;;;;15.05;73.84;101239.21;108548;1262;73810;-88
2023/07/14 01:25:13;;;;;;;;;;;;;;;15.01;73.79;101239.52;108575;1262;124786;-88
2023/07/14 01:27:40;;;;;;;;;;;;;;;14.97;73.98;101241.77;108517;1262;72560;-88
2023/07/14 01:30:08;;;;;;;;;;;;;;;14.94;74.13;101240.29;108656;1261;59239;-88
2023/07/14 01:32:36;;;;;;;;;;;;;;;14.90;74.07;101239.38;108389;1262;125169;-88
2023/07/14 01:35:05;;;;;;;;;;;;;;;14.88;74.17;101239.32;108537;1263;74859;-88
2023/07/14 01:37:35;;;;;;;;;;;;;;;14.86;74.28;101242.84;108336;1263;124839;-88
2023/07/14 01:40:05;;;;;;;;;;;;;;;14.84;74.28;101242.63;108509;1263;71411;-88
2023/07/14 01:42:32;;;;;;;;;;;;;;;14.81;74.28;101244.70;108301;1263;125041;-88
2023/07/14 01:44:59;;;;;;;;;;;;;;;14.77;74.19;101244.11;108376;1263;59922;-88
2023/07/14 01:47:28;;;;;;;;;;;;;;;14.75;74.39;101246.36;108469;1267;74797;-88
2023/07/14 01:49:55;;;;;;;;;;;;;;;14.72;74.42;101248.62;108369;1262;124938;-89
2023/07/14 01:52:24;;;;;;;;;;;;;;;14.69;74.52;101252.10;108434;1263;71174;-88
2023/07/14 01:54:52;;;;;;;;;;;;;;;14.69;74.51;101254.92;108257;1266;125363;-88
2023/07/14 01:57:20;;;;;;;;;;;;;;;14.66;74.42;101260.53;108388;1264;59508;-88
2023/07/14 01:59:48;;;;;;;;;;;;;;;14.63;74.53;101261.36;108495;1264;74641;-88
2023/07/14 02:02:17;;;;;;;;;;;;;;;14.62;74.64;101268.05;108394;1263;125083;-88
2023/07/14 02:04:46;;;;;;;;;;;;;;;14.60;74.67;101270.85;108423;1263;72653;-88
2023/07/14 02:07:13;;;;;;;;;;;;;;;14.59;74.72;101273.66;108358;1263;123749;-88
2023/07/14 02:09:40;;;;;;;;;;;;;;;14.57;74.84;101277.52;108466;1263;59235;-88
2023/07/14 02:12:16;;;;;;;;;;;;;;;14.56;74.70;101282.60;108479;1263;74802;-88
2023/07/14 02:14:52;;;;;;;;;;;;;;;14.53;74.85;101282.36;108588;1263;67540;-88
2023/07/14 02:17:33;;;;;;;;;;;;;;;14.52;75.00;101285.70;108500;1262;72786;-88
2023/07/14 02:20:03;;;;;;;;;;;;;;;14.51;75.08;101282.52;108411;1262;125210;-88
2023/07/14 02:22:30;;;;;;;;;;;;;;;14.51;75.11;101287.79;108543;1262;59145;-88
2023/07/14 02:24:58;;;;;;;;;;;;;;;14.49;75.02;101289.02;108420;1263;125184;-88
2023/07/14 02:27:25;;;;;;;;;;;;;;;14.47;75.13;101293.74;108621;1262;65559;-89
2023/07/14 02:29:52;;;;;;;;;;;;;;;14.46;75.08;101294.77;108539;1263;70835;-89
2023/07/14 02:32:24;;;;;;;;;;;;;;;14.45;75.06;101297.95;108472;1263;124128;-88
2023/07/14 02:34:53;;;;;;;;;;;;;;;14.46;75.16;101298.84;108475;1262;59132;-88
2023/07/14 02:38:00;;;;;;;;;;;;;;;14.45;75.02;101300.40;108383;1262;124281;-88
2023/07/14 02:40:30;;;;;;;;;;;;;;;14.45;75.16;101304.48;108528;1262;67117;-88
2023/07/14 02:42:57;;;;;;;;;;;;;;;14.44;75.26;101306.22;108453;1264;124476;-88
2023/07/14 02:45:24;;;;;;;;;;;;;;;14.44;75.38;101306.91;108537;1262;59337;-88
2023/07/14 02:47:51;;;;;;;;;;;;;;;14.44;75.37;101308.15;108486;1262;59126;-88
2023/07/14 02:50:18;;;;;;;;;;;;;;;14.43;75.45;101310.97;108381;1262;124644;-88
2023/07/14 02:52:45;;;;;;;;;;;;;;;14.43;75.59;101311.14;108537;1264;65908;-88
2023/07/14 02:55:12;;;;;;;;;;;;;;;14.45;75.69;101309.95;108404;1262;124147;-88
2023/07/14 02:57:39;;;;;;;;;;;;;;;14.46;75.81;101313.49;108636;1262;59161;-88
2023/07/14 03:00:07;;;;;;;;;;;;;;;14.48;75.84;101307.88;108620;1262;59405;-88
2023/07/14 03:02:35;;;;;;;;;;;;;;;14.50;75.95;101306.33;108406;1262;124052;-88
2023/07/14 03:05:02;;;;;;;;;;;;;;;14.54;76.04;101306.23;108519;1262;67146;-88
2023/07/14 03:07:32;;;;;;;;;;;;;;;14.58;76.07;101306.86;108452;1262;124465;-88
2023/07/14 03:09:59;;;;;;;;;;;;;;;14.64;76.20;101309.08;108528;1263;59004;-88
2023/07/14 03:12:36;;;;;;;;;;;;;;;14.70;76.24;101313.06;108458;1262;125487;-89
2023/07/14 03:15:04;;;;;;;;;;;;;;;14.76;76.27;101313.35;108546;1262;73417;-86
2023/07/14 03:17:33;;;;;;;;;;;;;;;14.83;76.25;101318.05;108645;1262;67097;-87
2023/07/14 03:20:00;;;;;;;;;;;;;;;14.92;76.41;101319.63;108561;1260;124844;-87
2023/07/14 03:22:30;;;;;;;;;;;;;;;15.01;76.36;101317.29;108603;1262;58996;-86
2023/07/14 03:25:00;;;;;;;;;;;;;;;15.12;76.41;101317.46;108423;1262;125088;-88
2023/07/14 03:27:27;;;;;;;;;;;;;;;15.25;76.51;101321.36;108417;1262;76025;-88
2023/07/14 03:29:55;;;;;;;;;;;;;;;15.38;76.43;101324.57;108587;1264;66779;-87
2023/07/14 03:32:21;;;;;;;;;;;;;;;15.68;77.03;101328.17;108406;1262;124916;-87
2023/07/14 03:34:50;;;;;;;;;;;;;;;16.78;79.08;101328.31;108646;1262;59496;-87
2023/07/14 03:37:16;;;;;;;;;;;;;;;18.45;79.21;101319.45;108494;1262;125196;-87
2023/07/14 03:39:43;;;;;;;;;;;;;;;19.80;76.58;101320.98;108682;1262;74148;-87
2023/07/14 03:42:10;;;;;;;;;;;;;;;20.30;73.41;101319.52;108615;1262;65820;-87
2023/07/14 03:44:37;;;;;;;;;;;;;;;20.18;71.11;101318.68;108391;1262;124880;-87
2023/07/14 03:47:04;;;;;;;;;;;;;;;20.18;71.43;101316.20;108635;1262;59804;-87
2023/07/14 03:49:31;;;;;;;;;;;;;;;20.58;70.66;101315.59;108414;1262;125119;-87
2023/07/14 03:51:58;;;;;;;;;;;;;;;20.57;69.18;101316.66;108567;1266;75538;-88
2023/07/14 03:54:25;;;;;;;;;;;;;;;20.58;68.94;101315.59;108340;1262;124406;-88
2023/07/14 03:56:52;;;;;;;;;;;;;;;21.43;70.13;101313.40;108488;1262;72705;-88
2023/07/14 03:59:20;;;;;;;;;;;;;;;23.29;70.73;101313.02;108501;1262;59751;-88
2023/07/14 04:01:47;;;;;;;;;;;;;;;25.32;68.46;101313.10;108357;1262;124127;-88
2023/07/14 04:04:14;;;;;;;;;;;;;;;27.02;65.79;101309.70;108617;1264;73218;-89
2023/07/14 04:06:41;;;;;;;;;;;;;;;28.52;63.01;101316.42;108412;1262;124278;-88
2023/07/14 04:09:08;;;;;;;;;;;;;;;29.73;60.64;101311.92;108492;1262;62765;-90
2023/07/14 04:11:35;;;;;;;;;;;;;;;30.96;58.43;101314.16;108633;1262;59114;-89
2023/07/14 04:14:02;;;;;;;;;;;;;;;32.01;55.83;101314.95;108487;1262;124323;-90
2023/07/14 04:16:29;;;;;;;;;;;;;;;32.81;53.57;101310.33;108682;1262;64504;-86
2023/07/14 04:18:56;;;;;;;;;;;;;;;33.54;51.73;101306.82;108589;1262;124260;-91
2023/07/14 04:21:27;;;;;;;;;;;;;;;34.38;50.11;101304.02;108638;1262;64166;-90
2023/07/14 04:23:54;;;;;;;;;;;;;;;35.09;48.34;101308.17;108649;1262;59034;-85
2023/07/14 04:26:22;;;;;;;;;;;;;;;35.80;46.97;101316.85;108414;1262;124941;-84
2023/07/14 04:28:48;;;;;;;;;;;;;;;36.47;45.46;101318.38;108539;1262;64986;-91
2023/07/14 04:31:16;;;;;;;;;;;;;;;37.07;43.91;101323.00;108552;1262;124260;-92
2023/07/14 04:33:44;;;;;;;;;;;;;;;37.59;42.56;101329.36;108588;1263;64095;-89
2023/07/14 04:36:14;;;;;;;;;;;;;;;38.11;41.33;101329.51;108597;1263;59131;-88
2023/07/14 04:39:01;;;;;;;;;;;;;;;38.61;40.22;101328.85;108734;1263;58900;-89
2023/07/14 04:41:28;;;;;;;;;;;;;;;39.04;38.81;101333.99;108582;1264;66073;-90
2023/07/14 04:43:55;;;;;;;;;;;;;;;39.45;37.98;101332.70;108469;1263;124453;-88
2023/07/14 04:46:22;;;;;;;;;;;;;;;40.03;37.06;101331.73;108511;1264;64119;-88
2023/07/14 04:48:50;;;;;;;;;;;;;;;40.43;36.00;101330.36;108542;1263;124396;-89
2023/07/14 04:51:17;;;;;;;;;;;;;;;40.70;35.12;101333.32;108644;1264;59071;-89
2023/07/14 04:53:44;;;;;;;;;;;;;;;41.11;34.43;101336.31;108636;1263;66074;-89
2023/07/14 04:56:11;;;;;;;;;;;;;;;41.49;33.53;101335.78;108530;1264;124402;-88
2023/07/14 04:58:39;;;;;;;;;;;;;;;41.89;32.76;101339.13;108556;1263;62454;-89
2023/07/14 05:01:06;;;;;;;;;;;;;;;42.22;31.93;101339.14;108512;1263;124259;-91
2023/07/14 05:03:33;;;;;;;;;;;;;;;42.45;31.23;101343.61;108573;1263;59065;-82
2023/07/14 05:06:00;;;;;;;;;;;;;;;42.60;30.44;101343.02;108538;1264;64634;-83
2023/07/14 05:08:27;;;;;;;;;;;;;;;42.49;29.90;101340.86;108383;1264;124642;-85
2023/07/14 05:10:54;;;;;;;;;;;;;;;42.46;29.48;101339.46;108464;1263;64137;-86
2023/07/14 05:13:21;;;;;;;;;;;;;;;42.45;28.89;101336.98;108319;1264;124179;-84
2023/07/14 05:15:48;;;;;;;;;;;;;;;42.37;28.61;101339.64;108469;1263;59114;-84
2023/07/14 05:18:15;;;;;;;;;;;;;;;42.40;28.39;101342.65;108488;1263;65254;-84
2023/07/14 05:20:43;;;;;;;;;;;;;;;42.51;28.23;101341.09;108416;1263;124110;-85
2023/07/14 05:23:11;;;;;;;;;;;;;;;42.81;27.95;101344.42;108463;1263;62647;-84
2023/07/14 05:25:45;;;;;;;;;;;;;;;43.15;27.61;101347.58;108385;1263;125330;-85
2023/07/14 05:28:12;;;;;;;;;;;;;;;43.35;27.04;101346.42;108453;1263;59097;-85
2023/07/14 05:30:39;;;;;;;;;;;;;;;43.47;26.72;101347.90;108301;1263;124710;-84
2023/07/14 05:33:06;;;;;;;;;;;;;;;43.61;26.35;101349.20;108514;1263;59145;-85
2023/07/14 05:35:33;;;;;;;;;;;;;;;43.88;26.37;101352.81;108549;1263;72607;-85
2023/07/14 05:37:59;;;;;;;;;;;;;;;44.12;25.87;101353.73;108466;1264;124074;-85
2023/07/14 05:40:26;;;;;;;;;;;;;;;44.27;25.44;101353.66;108556;1262;58997;-85
2023/07/14 05:42:54;;;;;;;;;;;;;;;44.12;25.02;101350.29;108328;1262;126113;-85
2023/07/14 05:45:21;;;;;;;;;;;;;;;43.32;24.61;101346.70;108521;1263;59116;-85
2023/07/14 05:48:06;;;;;;;;;;;;;;;41.16;24.90;101345.25;108292;1262;64148;-85
2023/07/14 05:50:35;;;;;;;;;;;;;;;38.44;26.09;101341.11;108278;1263;124043;-86
2023/07/14 05:53:25;;;;;;;;;;;;;;;36.20;27.24;101343.12;108501;1263;59062;-86
2023/07/14 05:55:55;;;;;;;;;;;;;;;34.24;28.62;101340.55;108264;1262;124204;-84
2023/07/14 05:58:22;;;;;;;;;;;;;;;32.59;29.98;101348.31;108539;1264;59223;-86
2023/07/14 06:00:49;;;;;;;;;;;;;;;31.18;31.17;101349.60;108336;1262;124454;-85
2023/07/14 06:03:16;;;;;;;;;;;;;;;30.05;32.32;101348.47;108321;1262;59608;-85
2023/07/14 06:05:43;;;;;;;;;;;;;;;29.11;33.66;101351.95;108451;1261;59091;-85
2023/07/14 06:08:10;;;;;;;;;;;;;;;28.35;34.66;101356.30;108276;1261;124227;-85
2023/07/14 06:10:37;;;;;;;;;;;;;;;27.74;35.58;101355.90;108504;1263;65773;-84
2023/07/14 06:13:04;;;;;;;;;;;;;;;27.07;36.34;101354.63;108427;1264;72757;-85
2023/07/14 06:15:31;;;;;;;;;;;;;;;26.46;37.33;101354.42;108419;1263;59433;-84
2023/07/14 06:17:58;;;;;;;;;;;;;;;25.97;38.23;101352.67;108416;1262;60067;-84
2023/07/14 06:20:25;;;;;;;;;;;;;;;25.51;38.94;101352.16;108406;1263;123666;-85
2023/07/14 06:22:52;;;;;;;;;;;;;;;25.04;39.79;101354.46;108372;1262;67297;-84
2023/07/14 06:25:19;;;;;;;;;;;;;;;24.60;40.45;101358.60;108360;1262;124679;-84
2023/07/14 06:27:46;;;;;;;;;;;;;;;24.30;41.40;101356.02;108418;1262;59068;-84
2023/07/14 06:30:13;;;;;;;;;;;;;;;24.14;41.81;101362.12;108286;1262;59202;-84
2023/07/14 06:32:40;;;;;;;;;;;;;;;23.96;42.41;101355.86;108307;1263;124479;-84
2023/07/14 06:35:08;;;;;;;;;;;;;;;23.89;42.98;101355.83;108365;1262;64935;-84
2023/07/14 06:37:35;;;;;;;;;;;;;;;23.78;43.21;101355.31;108236;1262;124371;-84
2023/07/14 06:40:03;;;;;;;;;;;;;;;23.64;43.39;101358.42;108351;1262;59702;-84
2023/07/14 06:42:31;;;;;;;;;;;;;;;23.49;43.57;101358.36;108187;1265;124975;-84
2023/07/14 06:44:57;;;;;;;;;;;;;;;23.44;44.11;101359.16;108391;1262;74753;-84
2023/07/14 06:47:24;;;;;;;;;;;;;;;23.37;44.39;101363.05;108550;1264;66392;-84
2023/07/14 06:49:52;;;;;;;;;;;;;;;23.39;44.65;101361.96;108426;1264;124131;-83
2023/07/14 06:52:19;;;;;;;;;;;;;;;23.34;44.75;101364.39;108553;1263;59604;-84
2023/07/14 06:54:46;;;;;;;;;;;;;;;23.33;44.81;101365.84;108448;1263;124319;-84
2023/07/14 06:57:13;;;;;;;;;;;;;;;23.25;44.66;101369.36;108481;1263;74704;-83
2023/07/14 06:59:41;;;;;;;;;;;;;;;23.14;44.81;101370.83;108382;1263;67014;-83
2023/07/14 07:02:11;;;;;;;;;;;;;;;23.01;45.13;101372.63;108261;1263;125229;-83
2023/07/14 07:04:38;;;;;;;;;;;;;;;22.89;45.46;101371.55;108402;1264;59256;-83
2023/07/14 07:07:05;;;;;;;;;;;;;;;22.91;45.82;101372.79;108422;1263;124399;-83
2023/07/14 07:09:33;;;;;;;;;;;;;;;22.88;45.81;101373.17;108534;1262;74641;-83
2023/07/14 07:12:00;;;;;;;;;;;;;;;22.72;45.90;101369.15;108411;1264;67090;-83
2023/07/14 07:14:27;;;;;;;;;;;;;;;22.60;46.28;101369.50;108298;1263;124333;-83
2023/07/14 07:16:54;;;;;;;;;;;;;;;22.64;46.71;101372.14;108482;1262;59131;-83
2023/07/14 07:19:21;;;;;;;;;;;;;;;22.82;47.21;101371.14;108479;1262;124706;-86
2023/07/14 07:21:48;;;;;;;;;;;;;;;23.02;47.08;101368.31;108511;1263;74735;-86
2023/07/14 07:24:15;;;;;;;;;;;;;;;23.22;46.89;101367.63;108435;1264;66270;-84
2023/07/14 07:26:45;;;;;;;;;;;;;;;23.40;46.63;101371.78;108194;1263;124021;-84
2023/07/14 07:29:12;;;;;;;;;;;;;;;23.46;46.47;101365.77;108444;1263;59282;-85
2023/07/14 07:31:39;;;;;;;;;;;;;;;23.57;46.39;101369.86;108405;1262;124581;-84
2023/07/14 07:34:08;;;;;;;;;;;;;;;23.75;46.20;101365.39;108535;1262;74629;-84
2023/07/14 07:36:35;;;;;;;;;;;;;;;23.96;45.88;101366.63;108449;1262;124686;-84
2023/07/14 07:39:02;;;;;;;;;;;;;;;24.16;45.76;101367.61;108521;1262;72737;-84
2023/07/14 07:41:29;;;;;;;;;;;;;;;24.35;45.56;101368.81;108512;1262;59388;-85
2023/07/14 07:43:57;;;;;;;;;;;;;;;24.48;45.55;101366.38;108344;1262;124461;-85
2023/07/14 07:46:26;;;;;;;;;;;;;;;24.41;44.91;101364.73;108600;1261;72445;-85
2023/07/14 07:48:53;;;;;;;;;;;;;;;24.18;44.70;101365.23;108415;1262;124622;-85
2023/07/14 07:51:20;;;;;;;;;;;;;;;24.00;44.85;101364.01;108505;1262;71455;-85
2023/07/14 07:53:48;;;;;;;;;;;;;;;23.91;45.36;101362.04;108424;1262;59147;-85
2023/07/14 07:56:15;;;;;;;;;;;;;;;23.95;45.29;101361.27;108297;1262;124598;-84
2023/07/14 07:58:43;;;;;;;;;;;;;;;23.97;45.14;101363.89;108521;1262;74739;-85
2023/07/14 08:01:14;;;;;;;;;;;;;;;24.03;45.27;101364.68;108341;1262;124666;-84
2023/07/14 08:03:41;;;;;;;;;;;;;;;24.01;45.07;101364.36;108370;1262;72820;-85
2023/07/14 08:06:08;;;;;;;;;;;;;;;23.91;44.99;101362.07;108533;1265;59327;-85
2023/07/14 08:08:35;;;;;;;;;;;;;;;23.76;44.80;101365.57;108486;1262;124069;-85
2023/07/14 08:11:02;;;;;;;;;;;;;;;23.62;44.99;101367.08;108459;1262;73749;-85
2023/07/14 08:13:29;;;;;;;;;;;;;;;23.48;44.81;101370.21;108439;1262;124543;-85
2023/07/14 08:15:56;;;;;;;;;;;;;;;23.38;44.84;101373.25;108499;1266;72961;-91
2023/07/14 08:18:23;;;;;;;;;;;;;;;23.37;45.03;101369.69;108426;1262;59212;-85
2023/07/14 08:20:51;;;;;;;;;;;;;;;23.42;45.18;101370.66;108303;1262;60770;-85
2023/07/14 08:23:19;;;;;;;;;;;;;;;23.38;45.04;101372.73;108603;1262;74750;-85
2023/07/14 08:25:53;;;;;;;;;;;;;;;23.21;45.13;101371.95;108476;1262;124195;-85
2023/07/14 08:28:20;;;;;;;;;;;;;;;23.03;45.43;101376.01;108632;1262;70959;-90
2023/07/14 08:30:50;;;;;;;;;;;;;;;22.92;45.69;101378.67;108473;1262;124260;-91
2023/07/14 08:33:18;;;;;;;;;;;;;;;22.87;45.76;101378.40;108566;1262;59899;-90
2023/07/14 08:35:49;;;;;;;;;;;;;;;22.95;45.88;101377.55;108583;1262;74534;-91
2023/07/14 08:38:16;;;;;;;;;;;;;;;23.11;45.59;101375.16;108452;1262;124070;-90
2023/07/14 08:40:47;;;;;;;;;;;;;;;23.20;45.58;101380.02;108518;1262;71721;-90
2023/07/14 08:43:17;;;;;;;;;;;;;;;23.09;45.09;101382.36;108417;1262;125219;-90
2023/07/14 08:45:53;;;;;;;;;;;;;;;22.96;45.19;101379.50;108535;1262;59183;-90
2023/07/14 08:48:31;;;;;;;;;;;;;;;22.87;45.36;101377.14;108540;1262;73985;-85
2023/07/14 08:51:01;;;;;;;;;;;;;;;22.88;45.75;101375.52;108419;1263;67125;-85
2023/07/14 08:53:29;;;;;;;;;;;;;;;22.99;46.06;101368.54;108499;1262;71458;-84
2023/07/14 08:55:59;;;;;;;;;;;;;;;23.16;45.67;101370.79;108182;1262;124342;-84
2023/07/14 08:58:26;;;;;;;;;;;;;;;23.28;45.61;101368.59;108349;1262;59394;-85
2023/07/14 09:00:56;;;;;;;;;;;;;;;23.44;45.46;101370.29;108489;1262;124188;-85
2023/07/14 09:03:27;;;;;;;;;;;;;;;23.58;45.02;101369.30;108563;1264;66928;-85
2023/07/14 09:05:55;;;;;;;;;;;;;;;23.69;44.70;101371.08;108345;1262;71409;-85
2023/07/14 09:08:24;;;;;;;;;;;;;;;23.69;44.45;101376.26;108196;1262;124795;-85
2023/07/14 09:10:57;;;;;;;;;;;;;;;23.53;44.20;101376.20;108532;1262;59487;-85
2023/07/14 09:13:48;;;;;;;;;;;;;;;23.37;44.46;101374.89;108261;1262;124805;-85
2023/07/14 09:16:15;;;;;;;;;;;;;;;23.25;44.31;101377.42;108050;1262;66942;-85
2023/07/14 09:18:42;;;;;;;;;;;;;;;23.17;44.57;101378.83;108157;1262;124693;-85
2023/07/14 09:21:13;;;;;;;;;;;;;;;23.15;44.57;101374.21;108298;1262;59225;-85
2023/07/14 09:23:44;;;;;;;;;;;;;;;23.18;44.72;101375.41;108482;1262;59890;-85
2023/07/14 09:26:13;;;;;;;;;;;;;;;23.24;44.80;101372.80;108509;1265;124083;-84
2023/07/14 09:28:46;;;;;;;;;;;;;;;23.29;44.55;101375.03;108454;1262;67017;-85
2023/07/14 09:31:37;;;;;;;;;;;;;;;23.29;44.43;101369.84;108352;1262;124646;-85
2023/07/14 09:34:07;;;;;;;;;;;;;;;23.26;44.29;101371.31;108590;1262;59265;-85
2023/07/14 09:36:35;;;;;;;;;;;;;;;23.25;44.72;101368.83;108402;1262;124351;-85
2023/07/14 09:39:03;;;;;;;;;;;;;;;23.34;44.59;101370.30;108457;1262;73135;-85
2023/07/14 09:41:31;;;;;;;;;;;;;;;23.48;44.83;101373.25;108626;1262;65268;-85
2023/07/14 09:43:58;;;;;;;;;;;;;;;23.72;44.56;101367.94;108297;1262;124827;-86
2023/07/14 09:46:25;;;;;;;;;;;;;;;24.01;44.22;101361.66;108329;1263;59322;-86
2023/07/14 09:49:02;;;;;;;;;;;;;;;24.28;43.96;101361.27;108219;1267;124766;-85
2023/07/14 09:51:29;;;;;;;;;;;;;;;24.47;43.48;101358.88;108475;1262;74752;-84
2023/07/14 09:53:57;;;;;;;;;;;;;;;24.60;42.95;101353.75;108380;1262;66894;-85
2023/07/14 09:56:26;;;;;;;;;;;;;;;24.68;42.61;101344.23;108418;1262;125144;-84
2023/07/14 09:58:54;;;;;;;;;;;;;;;24.74;42.60;101347.13;108391;1262;59355;-83
2023/07/14 10:01:21;;;;;;;;;;;;;;;24.80;42.40;101346.45;108381;1262;123705;-90
2023/07/14 10:03:49;;;;;;;;;;;;;;;24.76;42.10;101347.09;108748;1262;74421;-90
2023/07/14 10:06:21;;;;;;;;;;;;;;;24.65;42.12;101345.20;108623;1262;66920;-90
2023/07/14 10:08:56;;;;;;;;;;;;;;;24.56;42.23;101344.88;108530;1262;123885;-90
2023/07/14 10:11:27;;;;;;;;;;;;;;;24.49;42.26;101346.63;108611;1262;59500;-91
2023/07/14 10:13:59;;;;;;;;;;;;;;;24.36;42.06;101342.96;108529;1262;124302;-91
2023/07/14 10:16:27;;;;;;;;;;;;;;;24.25;41.94;101338.19;108608;1261;73516;-90
2023/07/14 10:18:55;;;;;;;;;;;;;;;24.22;42.04;101335.56;108601;1262;124248;-85
2023/07/14 10:21:23;;;;;;;;;;;;;;;24.29;42.35;101335.41;108400;1262;71222;-85
2023/07/14 10:24:18;;;;;;;;;;;;;;;24.42;42.15;101332.61;108391;1262;59441;-85
2023/07/14 10:26:52;;;;;;;;;;;;;;;24.58;41.82;101332.78;108489;1262;124016;-85
2023/07/14 10:29:21;;;;;;;;;;;;;;;24.64;41.54;101331.95;108618;1262;74501;-85
2023/07/14 10:31:53;;;;;;;;;;;;;;;24.69;41.19;101329.12;108318;1262;124934;-85
2023/07/14 10:34:39;;;;;;;;;;;;;;;24.76;40.61;101329.51;108350;1264;71885;-85
2023/07/14 10:37:10;;;;;;;;;;;;;;;24.86;40.49;101320.08;108434;1262;124432;-85
2023/07/14 10:39:40;;;;;;;;;;;;;;;25.02;40.42;101316.98;108531;1262;59284;-85
2023/07/14 10:42:08;;;;;;;;;;;;;;;25.20;40.06;101319.74;108435;1263;73666;-84
2023/07/14 10:44:37;;;;;;;;;;;;;;;25.26;39.38;101314.05;108472;1265;124586;-90
2023/07/14 10:47:30;;;;;;;;;;;;;;;25.33;39.32;101313.86;108689;1263;72741;-91
2023/07/14 10:50:18;;;;;;;;;;;;;;;25.44;39.27;101316.43;108145;1262;257606;-84
2023/07/14 10:52:47;;;;;;;;;;;;;;;25.53;39.19;101312.74;108558;1263;59892;-84
2023/07/14 10:55:19;;;;;;;;;;;;;;;25.56;38.77;101314.11;108325;1263;124551;-84
2023/07/14 10:57:47;;;;;;;;;;;;;;;25.55;38.47;101315.41;108379;1264;67000;-84
2023/07/14 11:00:21;;;;;;;;;;;;;;;25.53;38.31;101312.40;108367;1265;73856;-85
2023/07/14 11:03:20;;;;;;;;;;;;;;;25.68;38.39;101309.09;108405;1263;59237;-85
2023/07/14 11:05:57;;;;;;;;;;;;;;;25.97;38.39;101313.66;108354;1268;59916;-85
2023/07/14 11:08:28;;;;;;;;;;;;;;;26.25;38.15;101309.40;108282;1264;124418;-86
2023/07/14 11:11:12;;;;;;;;;;;;;;;26.44;37.81;101310.60;108345;1262;65750;-84
2023/07/14 11:14:05;;;;;;;;;;;;;;;26.57;37.24;101302.42;108266;1262;124600;-85
2023/07/14 11:16:38;;;;;;;;;;;;;;;26.72;36.67;101307.74;108400;1263;59526;-84
2023/07/14 11:19:15;;;;;;;;;;;;;;;26.69;36.42;101311.77;108363;1263;124985;-84
2023/07/14 11:22:03;;;;;;;;;;;;;;;26.68;36.44;101312.36;108565;1262;73373;-84
2023/07/14 11:24:35;;;;;;;;;;;;;;;26.70;36.44;101311.05;108535;1262;66256;-84
2023/07/14 11:27:09;;;;;;;;;;;;;;;26.62;36.21;101310.40;108399;1264;71694;-85
2023/07/14 11:29:47;;;;;;;;;;;;;;;26.55;36.44;101310.04;108339;1263;59203;-84
2023/07/14 11:32:18;;;;;;;;;;;;;;;26.52;36.48;101312.30;108418;1262;124532;-85
2023/07/14 11:34:54;;;;;;;;;;;;;;;26.42;35.97;101313.16;108433;1262;73455;-85
2023/07/14 11:37:29;;;;;;;;;;;;;;;26.15;36.11;101314.71;108346;1262;124699;-85
2023/07/14 11:40:00;;;;;;;;;;;;;;;25.83;36.29;101313.69;108700;1262;71873;-90
2023/07/14 11:42:33;;;;;;;;;;;;;;;25.65;37.60;101316.02;108520;1262;59187;-91
2023/07/14 11:45:04;;;;;;;;;;;;;;;25.49;38.32;101318.80;108526;1264;59327;-90
2023/07/14 11:47:39;;;;;;;;;;;;;;;25.25;38.96;101324.29;108582;1262;74519;-89
2023/07/14 11:50:15;;;;;;;;;;;;;;;25.20;39.33;101331.40;108454;1262;124504;-91
2023/07/14 11:52:42;;;;;;;;;;;;;;;25.08;39.37;101331.56;108697;1262;71449;-90
2023/07/14 11:55:18;;;;;;;;;;;;;;;24.89;39.75;101343.17;108515;1262;124566;-90
2023/07/14 11:57:53;;;;;;;;;;;;;;;24.69;40.30;101346.70;108689;1262;60156;-90
2023/07/14 12:00:24;;;;;;;;;;;;;;;24.39;40.56;101343.61;108524;1262;75276;-91
2023/07/14 12:03:02;;;;;;;;;;;;;;;24.15;41.00;101349.89;108418;1264;124187;-90
2023/07/14 12:05:34;;;;;;;;;;;;;;;23.91;41.31;101351.28;108492;1263;72497;-90
2023/07/14 12:08:01;;;;;;;;;;;;;;;23.84;41.89;101350.54;108578;1262;124373;-90
2023/07/14 12:10:43;;;;;;;;;;;;;;;23.82;41.88;101353.64;108645;1262;59939;-90
2023/07/14 12:13:11;;;;;;;;;;;;;;;23.85;42.23;101350.36;108612;1262;124560;-89
2023/07/14 12:15:42;;;;;;;;;;;;;;;23.91;42.07;101353.64;108723;1262;65505;-90
2023/07/14 12:18:26;;;;;;;;;;;;;;;23.98;42.27;101353.31;108654;1262;72743;-90
2023/07/14 12:21:12;;;;;;;;;;;;;;;24.14;42.36;101351.70;108450;1262;124381;-91
2023/07/14 12:23:40;;;;;;;;;;;;;;;24.35;42.24;101341.73;108617;1262;59972;-84
2023/07/14 12:26:17;;;;;;;;;;;;;;;24.69;42.17;101340.06;108229;1262;124437;-85
2023/07/14 12:28:44;;;;;;;;;;;;;;;25.02;41.77;101338.52;108389;1262;66798;-85
2023/07/14 12:31:12;;;;;;;;;;;;;;;25.30;41.50;101337.84;108318;1264;124378;-85
2023/07/14 12:33:39;;;;;;;;;;;;;;;25.51;41.25;101334.41;108435;1262;59338;-85
2023/07/14 12:36:09;;;;;;;;;;;;;;;25.76;40.94;101327.19;108370;1264;59400;-85
2023/07/14 12:38:36;;;;;;;;;;;;;;;25.92;40.10;101328.71;108274;1262;124877;-85